sensor_id;sensor_type;location;lat;lon;timestamp;pressure;altitude;pressure_sealevel;temperature;humidity
10460;BME280;54412;51.206;6.888;2023-02-02T00:01:18;101327.09;;;9.01;74.13
10460;BME280;54412;51.206;6.888;2023-02-02T00:03:44;101328.00;;;9.00;74.20
10460;BME280;54412;51.206;6.888;2023-02-02T00:06:10;101339.50;;;8.97;74.25
10460;BME280;54412;51.206;6.888;2023-02-02T00:08:36;101329.56;;;8.79;75.16
10460;BME280;54412;51.206;6.888;2023-02-02T00:11:04;101328.88;;;8.73;75.50
10460;BME280;54412;51.206;6.888;2023-02-02T00:13:31;101324.59;;;8.70;75.71
10460;BME280;54412;51.206;6.888;2023-02-02T00:15:57;101335.34;;;8.90;75.30
10460;BME280;54412;51.206;6.888;2023-02-02T00:18:22;101326.53;;;8.64;76.13
10460;BME280;54412;51.206;6.888;2023-02-02T00:20:49;101315.78;;;8.71;76.02
10460;BME280;54412;51.206;6.888;2023-02-02T00:23:15;101323.53;;;8.76;76.27
10460;BME280;54412;51.206;6.888;2023-02-02T00:25:42;101320.63;;;8.83;75.65
10460;BME280;54412;51.206;6.888;2023-02-02T00:28:07;101313.38;;;8.91;75.77
10460;BME280;54412;51.206;6.888;2023-02-02T00:30:33;101308.28;;;8.87;75.84
10460;BME280;54412;51.206;6.888;2023-02-02T00:32:59;101320.84;;;8.77;76.40
10460;BME280;54412;51.206;6.888;2023-02-02T00:35:24;101314.97;;;8.69;76.82
10460;BME280;54412;51.206;6.888;2023-02-02T00:37:50;101313.97;;;8.73;76.92
10460;BME280;54412;51.206;6.888;2023-02-02T00:40:16;101312.09;;;8.77;76.81
10460;BME280;54412;51.206;6.888;2023-02-02T00:42:42;101313.06;;;8.74;76.85
10460;BME280;54412;51.206;6.888;2023-02-02T00:45:13;101318.78;;;8.87;76.53
10460;BME280;54412;51.206;6.888;2023-02-02T00:47:47;101313.78;;;8.79;76.64
10460;BME280;54412;51.206;6.888;2023-02-02T00:50:19;101310.59;;;8.96;76.33
10460;BME280;54412;51.206;6.888;2023-02-02T00:52:47;101308.22;;;8.88;76.68
10460;BME280;54412;51.206;6.888;2023-02-02T00:55:14;101300.63;;;8.79;76.91
10460;BME280;54412;51.206;6.888;2023-02-02T00:57:40;101308.34;;;8.84;76.59
10460;BME280;54412;51.206;6.888;2023-02-02T01:00:14;101311.31;;;8.73;77.34
10460;BME280;54412;51.206;6.888;2023-02-02T01:02:40;101305.19;;;8.74;77.40
10460;BME280;54412;51.206;6.888;2023-02-02T01:05:06;101316.25;;;8.84;77.34
10460;BME280;54412;51.206;6.888;2023-02-02T01:07:31;101319.78;;;8.83;77.23
10460;BME280;54412;51.206;6.888;2023-02-02T01:09:57;101323.44;;;8.79;77.50
10460;BME280;54412;51.206;6.888;2023-02-02T01:12:23;101321.03;;;8.71;77.95
10460;BME280;54412;51.206;6.888;2023-02-02T01:14:49;101327.00;;;8.76;77.89
10460;BME280;54412;51.206;6.888;2023-02-02T01:17:15;101334.41;;;8.91;77.30
10460;BME280;54412;51.206;6.888;2023-02-02T01:19:41;101339.22;;;8.79;77.60
10460;BME280;54412;51.206;6.888;2023-02-02T01:22:07;101336.53;;;8.80;77.79
10460;BME280;54412;51.206;6.888;2023-02-02T01:24:33;101341.06;;;8.75;78.10
10460;BME280;54412;51.206;6.888;2023-02-02T01:26:59;101342.47;;;8.87;77.48
10460;BME280;54412;51.206;6.888;2023-02-02T01:29:25;101339.22;;;8.79;78.11
10460;BME280;54412;51.206;6.888;2023-02-02T01:31:51;101343.31;;;8.87;77.64
10460;BME280;54412;51.206;6.888;2023-02-02T01:34:17;101334.19;;;8.71;78.00
10460;BME280;54412;51.206;6.888;2023-02-02T01:36:43;101338.22;;;8.83;77.78
10460;BME280;54412;51.206;6.888;2023-02-02T01:39:09;101337.34;;;8.82;78.00
10460;BME280;54412;51.206;6.888;2023-02-02T01:41:35;101345.75;;;8.93;77.58
10460;BME280;54412;51.206;6.888;2023-02-02T01:44:05;101347.00;;;8.82;78.12
10460;BME280;54412;51.206;6.888;2023-02-02T01:46:51;101353.00;;;8.87;78.01
10460;BME280;54412;51.206;6.888;2023-02-02T01:49:19;101353.94;;;8.84;78.24
10460;BME280;54412;51.206;6.888;2023-02-02T01:51:54;101351.31;;;8.84;78.55
10460;BME280;54412;51.206;6.888;2023-02-02T01:54:44;101352.78;;;8.93;77.85
10460;BME280;54412;51.206;6.888;2023-02-02T01:57:36;101352.06;;;8.88;77.71
10460;BME280;54412;51.206;6.888;2023-02-02T02:00:08;101360.06;;;8.85;78.21
10460;BME280;54412;51.206;6.888;2023-02-02T02:02:37;101364.41;;;8.86;78.49
10460;BME280;54412;51.206;6.888;2023-02-02T02:05:05;101358.53;;;8.78;78.73
10460;BME280;54412;51.206;6.888;2023-02-02T02:07:32;101365.03;;;8.94;78.09
10460;BME280;54412;51.206;6.888;2023-02-02T02:09:58;101360.16;;;8.82;78.32
10460;BME280;54412;51.206;6.888;2023-02-02T02:12:23;101359.63;;;8.71;79.02
10460;BME280;54412;51.206;6.888;2023-02-02T02:14:50;101366.38;;;8.79;79.12
10460;BME280;54412;51.206;6.888;2023-02-02T02:18:17;101353.19;;;8.81;79.08
10460;BME280;54412;51.206;6.888;2023-02-02T02:24:11;101349.69;;;8.80;80.00
10460;BME280;54412;51.206;6.888;2023-02-02T02:30:40;101345.03;;;8.61;80.82
10460;BME280;54412;51.206;6.888;2023-02-02T02:36:41;101345.97;;;8.60;81.07
10460;BME280;54412;51.206;6.888;2023-02-02T02:39:44;101344.88;;;8.67;80.98
10460;BME280;54412;51.206;6.888;2023-02-02T02:42:22;101339.72;;;8.62;81.36
10460;BME280;54412;51.206;6.888;2023-02-02T02:44:52;101342.22;;;8.67;81.54
10460;BME280;54412;51.206;6.888;2023-02-02T02:47:18;101337.91;;;8.64;81.52
10460;BME280;54412;51.206;6.888;2023-02-02T02:49:47;101333.25;;;8.74;81.22
10460;BME280;54412;51.206;6.888;2023-02-02T02:52:14;101345.03;;;8.61;81.84
10460;BME280;54412;51.206;6.888;2023-02-02T02:54:46;101342.34;;;8.62;81.57
10460;BME280;54412;51.206;6.888;2023-02-02T02:58:00;101341.75;;;8.54;81.95
10460;BME280;54412;51.206;6.888;2023-02-02T03:00:58;101347.63;;;8.62;82.27
10460;BME280;54412;51.206;6.888;2023-02-02T03:06:59;101355.31;;;8.68;82.45
10460;BME280;54412;51.206;6.888;2023-02-02T03:09:32;101355.38;;;8.67;82.22
10460;BME280;54412;51.206;6.888;2023-02-02T03:12:00;101349.69;;;8.51;82.55
10460;BME280;54412;51.206;6.888;2023-02-02T03:14:26;101357.53;;;8.54;82.26
10460;BME280;54412;51.206;6.888;2023-02-02T03:16:52;101349.16;;;8.69;81.94
10460;BME280;54412;51.206;6.888;2023-02-02T03:19:18;101344.00;;;8.66;81.70
10460;BME280;54412;51.206;6.888;2023-02-02T03:21:44;101344.69;;;8.43;82.83
10460;BME280;54412;51.206;6.888;2023-02-02T03:24:10;101350.56;;;8.52;82.91
10460;BME280;54412;51.206;6.888;2023-02-02T03:26:36;101347.94;;;8.52;82.96
10460;BME280;54412;51.206;6.888;2023-02-02T03:29:02;101348.94;;;8.48;82.77
10460;BME280;54412;51.206;6.888;2023-02-02T03:31:29;101351.50;;;8.51;82.70
10460;BME280;54412;51.206;6.888;2023-02-02T03:33:55;101354.94;;;8.53;83.02
10460;BME280;54412;51.206;6.888;2023-02-02T03:36:21;101353.47;;;8.42;83.01
10460;BME280;54412;51.206;6.888;2023-02-02T03:38:47;101360.47;;;8.43;82.83
10460;BME280;54412;51.206;6.888;2023-02-02T03:41:13;101357.59;;;8.51;82.44
10460;BME280;54412;51.206;6.888;2023-02-02T03:43:39;101349.44;;;8.60;82.23
10460;BME280;54412;51.206;6.888;2023-02-02T03:46:05;101362.44;;;8.65;82.44
10460;BME280;54412;51.206;6.888;2023-02-02T03:48:36;101358.34;;;8.55;82.97
10460;BME280;54412;51.206;6.888;2023-02-02T03:51:11;101356.22;;;8.67;82.69
10460;BME280;54412;51.206;6.888;2023-02-02T03:53:38;101360.41;;;8.45;83.68
10460;BME280;54412;51.206;6.888;2023-02-02T03:56:05;101356.78;;;8.49;83.77
10460;BME280;54412;51.206;6.888;2023-02-02T03:58:31;101354.94;;;8.53;83.75
10460;BME280;54412;51.206;6.888;2023-02-02T04:01:05;101346.94;;;8.26;85.44
10460;BME280;54412;51.206;6.888;2023-02-02T04:03:32;101352.88;;;8.33;85.43
10460;BME280;54412;51.206;6.888;2023-02-02T04:05:58;101363.88;;;8.45;85.24
10460;BME280;54412;51.206;6.888;2023-02-02T04:08:24;101362.91;;;8.50;84.76
10460;BME280;54412;51.206;6.888;2023-02-02T04:10:50;101372.09;;;8.64;84.59
10460;BME280;54412;51.206;6.888;2023-02-02T04:13:15;101366.72;;;8.67;83.63
10460;BME280;54412;51.206;6.888;2023-02-02T04:15:41;101364.50;;;8.55;84.13
10460;BME280;54412;51.206;6.888;2023-02-02T04:18:07;101363.38;;;8.33;84.47
10460;BME280;54412;51.206;6.888;2023-02-02T04:20:32;101361.13;;;8.50;84.90
10460;BME280;54412;51.206;6.888;2023-02-02T04:22:58;101366.19;;;8.58;84.08
10460;BME280;54412;51.206;6.888;2023-02-02T04:25:24;101369.66;;;8.58;83.95
10460;BME280;54412;51.206;6.888;2023-02-02T04:27:49;101372.19;;;8.61;83.66
10460;BME280;54412;51.206;6.888;2023-02-02T04:30:16;101372.38;;;8.55;83.92
10460;BME280;54412;51.206;6.888;2023-02-02T04:32:41;101388.09;;;8.57;83.32
10460;BME280;54412;51.206;6.888;2023-02-02T04:35:07;101386.44;;;8.54;84.05
10460;BME280;54412;51.206;6.888;2023-02-02T04:37:33;101386.00;;;8.68;82.98
10460;BME280;54412;51.206;6.888;2023-02-02T04:39:59;101380.38;;;8.52;83.70
10460;BME280;54412;51.206;6.888;2023-02-02T04:42:25;101380.25;;;8.55;83.80
10460;BME280;54412;51.206;6.888;2023-02-02T04:44:50;101394.94;;;8.62;83.36
10460;BME280;54412;51.206;6.888;2023-02-02T04:47:16;101388.03;;;8.60;83.99
10460;BME280;54412;51.206;6.888;2023-02-02T04:49:42;101387.22;;;8.58;84.07
10460;BME280;54412;51.206;6.888;2023-02-02T04:52:10;101391.59;;;8.57;84.11
10460;BME280;54412;51.206;6.888;2023-02-02T04:54:35;101385.41;;;8.60;83.99
10460;BME280;54412;51.206;6.888;2023-02-02T04:57:01;101383.66;;;8.59;84.21
10460;BME280;54412;51.206;6.888;2023-02-02T04:59:28;101387.47;;;8.49;84.28
10460;BME280;54412;51.206;6.888;2023-02-02T05:01:58;101396.44;;;8.71;83.77
10460;BME280;54412;51.206;6.888;2023-02-02T05:04:25;101390.59;;;8.61;84.28
10460;BME280;54412;51.206;6.888;2023-02-02T05:06:51;101386.22;;;8.62;83.17
10460;BME280;54412;51.206;6.888;2023-02-02T05:09:16;101393.09;;;8.66;83.72
10460;BME280;54412;51.206;6.888;2023-02-02T05:11:42;101391.31;;;8.66;83.08
10460;BME280;54412;51.206;6.888;2023-02-02T05:14:09;101396.91;;;8.85;85.38
10460;BME280;54412;51.206;6.888;2023-02-02T05:16:35;101406.50;;;8.86;84.00
10460;BME280;54412;51.206;6.888;2023-02-02T05:19:01;101401.13;;;8.61;83.69
10460;BME280;54412;51.206;6.888;2023-02-02T05:21:27;101398.56;;;8.58;84.22
10460;BME280;54412;51.206;6.888;2023-02-02T05:23:53;101402.78;;;8.64;84.14
10460;BME280;54412;51.206;6.888;2023-02-02T05:26:23;101383.75;;;8.56;84.73
10460;BME280;54412;51.206;6.888;2023-02-02T05:28:50;101380.09;;;8.61;84.03
10460;BME280;54412;51.206;6.888;2023-02-02T05:31:16;101379.94;;;8.66;84.50
10460;BME280;54412;51.206;6.888;2023-02-02T05:33:42;101385.41;;;8.58;83.92
10460;BME280;54412;51.206;6.888;2023-02-02T05:36:08;101383.63;;;8.31;84.38
10460;BME280;54412;51.206;6.888;2023-02-02T05:38:34;101383.13;;;8.48;84.10
10460;BME280;54412;51.206;6.888;2023-02-02T05:41:00;101384.97;;;8.44;84.48
10460;BME280;54412;51.206;6.888;2023-02-02T05:43:28;101378.00;;;8.43;83.25
10460;BME280;54412;51.206;6.888;2023-02-02T05:45:54;101371.72;;;8.49;84.01
10460;BME280;54412;51.206;6.888;2023-02-02T05:48:20;101367.84;;;8.60;83.65
10460;BME280;54412;51.206;6.888;2023-02-02T05:51:05;101375.00;;;8.55;83.19
10460;BME280;54412;51.206;6.888;2023-02-02T05:53:35;101380.47;;;8.48;83.63
10460;BME280;54412;51.206;6.888;2023-02-02T05:56:00;101384.44;;;8.62;83.26
10460;BME280;54412;51.206;6.888;2023-02-02T05:58:26;101393.47;;;8.54;82.88
10460;BME280;54412;51.206;6.888;2023-02-02T06:00:53;101394.38;;;8.53;83.28
10460;BME280;54412;51.206;6.888;2023-02-02T06:03:19;101402.00;;;8.62;82.98
10460;BME280;54412;51.206;6.888;2023-02-02T06:05:45;101399.28;;;8.65;82.54
10460;BME280;54412;51.206;6.888;2023-02-02T06:08:10;101402.06;;;8.59;82.90
10460;BME280;54412;51.206;6.888;2023-02-02T06:10:40;101396.19;;;8.51;82.78
10460;BME280;54412;51.206;6.888;2023-02-02T06:13:07;101399.44;;;8.59;82.75
10460;BME280;54412;51.206;6.888;2023-02-02T06:15:34;101411.72;;;8.58;82.61
10460;BME280;54412;51.206;6.888;2023-02-02T06:18:01;101411.88;;;8.54;82.84
10460;BME280;54412;51.206;6.888;2023-02-02T06:20:27;101409.22;;;8.54;82.53
10460;BME280;54412;51.206;6.888;2023-02-02T06:22:53;101406.78;;;8.48;82.66
10460;BME280;54412;51.206;6.888;2023-02-02T06:25:19;101415.38;;;8.54;82.49
10460;BME280;54412;51.206;6.888;2023-02-02T06:27:45;101415.53;;;8.48;82.75
10460;BME280;54412;51.206;6.888;2023-02-02T06:30:12;101416.97;;;8.58;82.73
10460;BME280;54412;51.206;6.888;2023-02-02T06:32:38;101425.88;;;8.54;82.45
10460;BME280;54412;51.206;6.888;2023-02-02T06:35:05;101425.06;;;8.52;82.23
10460;BME280;54412;51.206;6.888;2023-02-02T06:37:30;101427.28;;;8.66;82.36
10460;BME280;54412;51.206;6.888;2023-02-02T06:39:56;101410.22;;;8.50;83.17
10460;BME280;54412;51.206;6.888;2023-02-02T06:42:22;101421.47;;;8.55;83.21
10460;BME280;54412;51.206;6.888;2023-02-02T06:44:47;101418.47;;;8.37;84.44
10460;BME280;54412;51.206;6.888;2023-02-02T06:47:13;101424.63;;;8.36;84.55
10460;BME280;54412;51.206;6.888;2023-02-02T06:49:39;101425.22;;;8.46;84.49
10460;BME280;54412;51.206;6.888;2023-02-02T06:52:06;101421.00;;;8.40;85.09
10460;BME280;54412;51.206;6.888;2023-02-02T06:54:32;101426.06;;;8.48;84.88
10460;BME280;54412;51.206;6.888;2023-02-02T06:56:57;101432.13;;;8.50;84.76
10460;BME280;54412;51.206;6.888;2023-02-02T06:59:23;101421.22;;;8.33;85.42
10460;BME280;54412;51.206;6.888;2023-02-02T07:01:49;101431.00;;;8.59;84.80
10460;BME280;54412;51.206;6.888;2023-02-02T07:04:18;101435.09;;;8.69;84.19
10460;BME280;54412;51.206;6.888;2023-02-02T07:06:45;101433.16;;;8.44;84.36
10460;BME280;54412;51.206;6.888;2023-02-02T07:09:10;101432.22;;;8.47;84.63
10460;BME280;54412;51.206;6.888;2023-02-02T07:11:36;101441.81;;;8.48;84.37
10460;BME280;54412;51.206;6.888;2023-02-02T07:43:11;101452.59;;;8.39;86.63
10460;BME280;54412;51.206;6.888;2023-02-02T07:45:37;101462.69;;;8.54;85.73
10460;BME280;54412;51.206;6.888;2023-02-02T07:48:03;101451.88;;;8.34;86.08
10460;BME280;54412;51.206;6.888;2023-02-02T07:50:29;101461.22;;;8.44;86.33
10460;BME280;54412;51.206;6.888;2023-02-02T07:52:57;101462.91;;;8.47;86.24
10460;BME280;54412;51.206;6.888;2023-02-02T07:55:23;101455.22;;;8.39;85.95
10460;BME280;54412;51.206;6.888;2023-02-02T07:57:51;101461.00;;;8.52;86.08
10460;BME280;54412;51.206;6.888;2023-02-02T08:00:19;101457.94;;;8.36;86.40
10460;BME280;54412;51.206;6.888;2023-02-02T08:02:48;101453.25;;;8.47;86.71
10460;BME280;54412;51.206;6.888;2023-02-02T08:05:13;101462.44;;;8.63;85.97
10460;BME280;54412;51.206;6.888;2023-02-02T08:07:39;101457.84;;;8.39;87.02
10460;BME280;54412;51.206;6.888;2023-02-02T08:10:05;101459.91;;;8.28;87.83
10460;BME280;54412;51.206;6.888;2023-02-02T08:12:31;101461.25;;;8.10;88.67
10460;BME280;54412;51.206;6.888;2023-02-02T08:14:57;101466.09;;;8.27;89.26
10460;BME280;54412;51.206;6.888;2023-02-02T08:17:23;101464.88;;;8.38;89.33
10460;BME280;54412;51.206;6.888;2023-02-02T08:19:49;101474.25;;;8.49;88.95
10460;BME280;54412;51.206;6.888;2023-02-02T08:22:15;101466.91;;;8.60;88.09
10460;BME280;54412;51.206;6.888;2023-02-02T08:24:40;101456.97;;;8.40;88.32
10460;BME280;54412;51.206;6.888;2023-02-02T08:27:08;101474.88;;;8.57;87.83
10460;BME280;54412;51.206;6.888;2023-02-02T08:29:35;101475.13;;;8.48;88.09
10460;BME280;54412;51.206;6.888;2023-02-02T08:32:04;101466.63;;;8.39;88.78
10460;BME280;54412;51.206;6.888;2023-02-02T08:34:30;101480.44;;;8.46;88.64
10460;BME280;54412;51.206;6.888;2023-02-02T08:36:56;101484.38;;;8.30;89.21
10460;BME280;54412;51.206;6.888;2023-02-02T08:39:21;101488.41;;;8.43;89.14
10460;BME280;54412;51.206;6.888;2023-02-02T08:41:47;101490.59;;;8.27;89.15
10460;BME280;54412;51.206;6.888;2023-02-02T08:44:14;101489.59;;;8.31;89.43
10460;BME280;54412;51.206;6.888;2023-02-02T08:46:41;101500.47;;;8.50;88.76
10460;BME280;54412;51.206;6.888;2023-02-02T08:49:11;101496.56;;;8.34;89.88
10460;BME280;54412;51.206;6.888;2023-02-02T08:51:37;101504.97;;;8.47;89.07
10460;BME280;54412;51.206;6.888;2023-02-02T08:54:03;101506.09;;;8.38;89.04
10460;BME280;54412;51.206;6.888;2023-02-02T08:56:28;101504.63;;;8.26;90.20
10460;BME280;54412;51.206;6.888;2023-02-02T08:58:56;101505.38;;;8.31;89.82
10460;BME280;54412;51.206;6.888;2023-02-02T09:01:32;101513.84;;;8.42;89.51
10460;BME280;54412;51.206;6.888;2023-02-02T09:04:05;101503.03;;;8.53;89.29
10460;BME280;54412;51.206;6.888;2023-02-02T09:06:37;101513.69;;;8.49;89.04
10460;BME280;54412;51.206;6.888;2023-02-02T09:09:06;101504.44;;;8.34;89.65
10460;BME280;54412;51.206;6.888;2023-02-02T09:11:32;101517.34;;;8.43;89.72
10460;BME280;54412;51.206;6.888;2023-02-02T09:13:59;101527.56;;;8.54;89.47
10460;BME280;54412;51.206;6.888;2023-02-02T09:16:31;101524.06;;;8.53;89.08
10460;BME280;54412;51.206;6.888;2023-02-02T09:18:58;101531.75;;;8.61;89.13
10460;BME280;54412;51.206;6.888;2023-02-02T09:21:24;101536.28;;;8.56;89.03
10460;BME280;54412;51.206;6.888;2023-02-02T09:23:52;101543.19;;;8.58;89.11
10460;BME280;54412;51.206;6.888;2023-02-02T09:26:27;101541.44;;;8.59;88.98
10460;BME280;54412;51.206;6.888;2023-02-02T09:28:59;101561.84;;;8.49;89.42
10460;BME280;54412;51.206;6.888;2023-02-02T09:31:32;101564.31;;;8.55;89.45
10460;BME280;54412;51.206;6.888;2023-02-02T09:34:08;101564.41;;;8.52;89.23
10460;BME280;54412;51.206;6.888;2023-02-02T09:36:34;101570.56;;;8.51;90.26
10460;BME280;54412;51.206;6.888;2023-02-02T09:39:00;101572.22;;;8.55;89.66
10460;BME280;54412;51.206;6.888;2023-02-02T09:47:03;101590.31;;;8.66;89.68
10460;BME280;54412;51.206;6.888;2023-02-02T09:52:28;101590.06;;;8.42;90.67
10460;BME280;54412;51.206;6.888;2023-02-02T09:55:04;101606.63;;;8.46;90.72
10460;BME280;54412;51.206;6.888;2023-02-02T09:57:40;101602.94;;;8.53;90.22
10460;BME280;54412;51.206;6.888;2023-02-02T10:00:27;101603.91;;;8.51;90.46
10460;BME280;54412;51.206;6.888;2023-02-02T10:03:11;101620.38;;;8.57;90.20
10460;BME280;54412;51.206;6.888;2023-02-02T10:08:44;101618.53;;;8.61;89.53
10460;BME280;54412;51.206;6.888;2023-02-02T10:11:33;101624.22;;;8.76;88.62
10460;BME280;54412;51.206;6.888;2023-02-02T10:14:10;101617.44;;;8.68;88.76
10460;BME280;54412;51.206;6.888;2023-02-02T10:16:40;101619.94;;;8.74;88.46
10460;BME280;54412;51.206;6.888;2023-02-02T10:19:11;101624.59;;;8.63;88.26
10460;BME280;54412;51.206;6.888;2023-02-02T10:22:02;101638.69;;;8.62;88.97
10460;BME280;54412;51.206;6.888;2023-02-02T10:24:31;101635.84;;;8.68;88.89
10460;BME280;54412;51.206;6.888;2023-02-02T10:27:12;101642.19;;;8.61;87.55
10460;BME280;54412;51.206;6.888;2023-02-02T10:32:30;101646.56;;;8.60;87.87
10460;BME280;54412;51.206;6.888;2023-02-02T10:35:30;101647.63;;;8.53;87.91
10460;BME280;54412;51.206;6.888;2023-02-02T10:41:32;101648.97;;;8.69;87.35
10460;BME280;54412;51.206;6.888;2023-02-02T10:44:34;101657.25;;;8.88;86.57
10460;BME280;54412;51.206;6.888;2023-02-02T10:47:05;101648.81;;;8.75;86.94
10460;BME280;54412;51.206;6.888;2023-02-02T10:49:37;101649.84;;;8.70;86.84
10460;BME280;54412;51.206;6.888;2023-02-02T10:52:15;101650.28;;;8.87;86.37
10460;BME280;54412;51.206;6.888;2023-02-02T10:54:53;101649.31;;;8.89;85.67
10460;BME280;54412;51.206;6.888;2023-02-02T10:58:34;101649.47;;;8.83;86.39
10460;BME280;54412;51.206;6.888;2023-02-02T11:00:54;101652.81;;;8.90;86.43
10460;BME280;54412;51.206;6.888;2023-02-02T11:03:26;101654.53;;;8.91;85.40
10460;BME280;54412;51.206;6.888;2023-02-02T11:05:52;101654.47;;;8.94;85.39
10460;BME280;54412;51.206;6.888;2023-02-02T11:08:44;101656.38;;;8.87;85.12
10460;BME280;54412;51.206;6.888;2023-02-02T11:11:31;101649.50;;;8.82;84.89
10460;BME280;54412;51.206;6.888;2023-02-02T11:16:34;101665.81;;;8.94;84.82
10460;BME280;54412;51.206;6.888;2023-02-02T11:19:00;101662.50;;;8.88;84.66
10460;BME280;54412;51.206;6.888;2023-02-02T11:21:37;101664.34;;;8.84;84.76
10460;BME280;54412;51.206;6.888;2023-02-02T11:24:09;101660.81;;;8.85;84.39
10460;BME280;54412;51.206;6.888;2023-02-02T11:35:20;101670.69;;;9.09;83.27
10460;BME280;54412;51.206;6.888;2023-02-02T11:38:12;101670.88;;;9.02;83.99
10460;BME280;54412;51.206;6.888;2023-02-02T11:40:44;101670.06;;;9.00;84.27
10460;BME280;54412;51.206;6.888;2023-02-02T11:43:37;101660.75;;;8.88;84.98
10460;BME280;54412;51.206;6.888;2023-02-02T11:46:23;101666.34;;;9.08;83.98
10460;BME280;54412;51.206;6.888;2023-02-02T11:49:00;101666.44;;;9.04;83.92
10460;BME280;54412;51.206;6.888;2023-02-02T11:51:28;101657.72;;;9.02;82.96
10460;BME280;54412;51.206;6.888;2023-02-02T11:54:25;101654.16;;;9.04;83.96
10460;BME280;54412;51.206;6.888;2023-02-02T11:56:58;101653.44;;;8.99;83.42
10460;BME280;54412;51.206;6.888;2023-02-02T11:59:43;101652.41;;;9.03;83.54
10460;BME280;54412;51.206;6.888;2023-02-02T12:04:49;101659.47;;;9.03;83.02
10460;BME280;54412;51.206;6.888;2023-02-02T12:07:31;101656.84;;;9.01;83.93
10460;BME280;54412;51.206;6.888;2023-02-02T12:10:03;101648.72;;;9.10;83.34
10460;BME280;54412;51.206;6.888;2023-02-02T12:21:04;101645.00;;;9.19;82.87
10460;BME280;54412;51.206;6.888;2023-02-02T12:26:33;101653.47;;;9.28;82.07
10460;BME280;54412;51.206;6.888;2023-02-02T12:29:36;101662.13;;;9.32;81.58
10460;BME280;54412;51.206;6.888;2023-02-02T12:32:38;101653.28;;;9.04;81.83
10460;BME280;54412;51.206;6.888;2023-02-02T12:38:30;101645.88;;;9.18;81.46
10460;BME280;54412;51.206;6.888;2023-02-02T12:45:00;101648.94;;;9.33;80.31
10460;BME280;54412;51.206;6.888;2023-02-02T12:50:36;101651.19;;;9.16;80.81
10460;BME280;54412;51.206;6.888;2023-02-02T12:53:46;101651.31;;;9.42;79.99
10460;BME280;54412;51.206;6.888;2023-02-02T12:56:25;101653.59;;;9.24;80.13
10460;BME280;54412;51.206;6.888;2023-02-02T12:59:02;101646.38;;;9.30;79.97
10460;BME280;54412;51.206;6.888;2023-02-02T13:02:21;101638.28;;;9.38;79.57
10460;BME280;54412;51.206;6.888;2023-02-02T13:05:22;101640.13;;;9.34;79.82
10460;BME280;54412;51.206;6.888;2023-02-02T13:08:01;101644.53;;;9.34;80.07
10460;BME280;54412;51.206;6.888;2023-02-02T13:10:46;101651.16;;;9.47;78.69
10460;BME280;54412;51.206;6.888;2023-02-02T13:13:30;101652.63;;;9.28;79.53
10460;BME280;54412;51.206;6.888;2023-02-02T13:16:07;101651.34;;;9.41;79.81
10460;BME280;54412;51.206;6.888;2023-02-02T13:18:53;101659.28;;;9.39;79.44
10460;BME280;54412;51.206;6.888;2023-02-02T13:21:23;101658.16;;;9.48;79.21
10460;BME280;54412;51.206;6.888;2023-02-02T13:23:55;101652.47;;;9.32;79.56
10460;BME280;54412;51.206;6.888;2023-02-02T13:26:27;101655.75;;;9.40;79.85
10460;BME280;54412;51.206;6.888;2023-02-02T13:29:23;101658.50;;;9.36;79.77
10460;BME280;54412;51.206;6.888;2023-02-02T13:32:18;101663.47;;;9.16;80.53
10460;BME280;54412;51.206;6.888;2023-02-02T13:35:02;101662.38;;;9.24;80.85
10460;BME280;54412;51.206;6.888;2023-02-02T13:37:47;101663.09;;;9.29;81.50
10460;BME280;54412;51.206;6.888;2023-02-02T13:40:35;101663.06;;;9.31;81.53
10460;BME280;54412;51.206;6.888;2023-02-02T13:49:18;101665.44;;;9.40;82.13
10460;BME280;54412;51.206;6.888;2023-02-02T14:00:24;101666.78;;;9.24;82.85
10460;BME280;54412;51.206;6.888;2023-02-02T14:02:58;101674.00;;;9.16;83.44
10460;BME280;54412;51.206;6.888;2023-02-02T14:05:40;101672.38;;;9.12;83.47
10460;BME280;54412;51.206;6.888;2023-02-02T14:08:20;101673.19;;;9.14;83.89
10460;BME280;54412;51.206;6.888;2023-02-02T14:13:45;101675.81;;;9.14;84.41
10460;BME280;54412;51.206;6.888;2023-02-02T14:19:01;101674.97;;;9.13;85.25
10460;BME280;54412;51.206;6.888;2023-02-02T14:27:00;101675.78;;;9.15;85.49
10460;BME280;54412;51.206;6.888;2023-02-02T14:34:40;101666.78;;;9.24;84.07
10460;BME280;54412;51.206;6.888;2023-02-02T14:45:40;101678.75;;;9.34;83.36
10460;BME280;54412;51.206;6.888;2023-02-02T14:53:22;101691.88;;;9.35;82.07
10460;BME280;54412;51.206;6.888;2023-02-02T14:55:57;101693.34;;;9.45;81.45
10460;BME280;54412;51.206;6.888;2023-02-02T14:58:36;101690.22;;;9.33;80.79
10460;BME280;54412;51.206;6.888;2023-02-02T15:06:31;101691.72;;;9.41;80.61
10460;BME280;54412;51.206;6.888;2023-02-02T15:17:21;101707.47;;;9.43;80.33
10460;BME280;54412;51.206;6.888;2023-02-02T15:20:13;101716.69;;;9.58;80.23
10460;BME280;54412;51.206;6.888;2023-02-02T15:22:56;101718.59;;;9.52;80.56
10460;BME280;54412;51.206;6.888;2023-02-02T15:25:39;101726.56;;;9.51;80.98
10460;BME280;54412;51.206;6.888;2023-02-02T15:28:24;101724.81;;;9.50;81.00
10460;BME280;54412;51.206;6.888;2023-02-02T15:30:58;101716.63;;;9.30;81.50
10460;BME280;54412;51.206;6.888;2023-02-02T15:33:42;101714.16;;;9.24;82.11
10460;BME280;54412;51.206;6.888;2023-02-02T15:36:32;101725.06;;;9.42;82.10
10460;BME280;54412;51.206;6.888;2023-02-02T15:39:07;101726.81;;;9.42;81.49
10460;BME280;54412;51.206;6.888;2023-02-02T15:41:41;101725.13;;;9.39;81.14
10460;BME280;54412;51.206;6.888;2023-02-02T15:44:27;101726.09;;;9.37;81.48
10460;BME280;54412;51.206;6.888;2023-02-02T15:46:55;101735.22;;;9.55;80.77
10460;BME280;54412;51.206;6.888;2023-02-02T15:49:31;101746.72;;;9.52;80.80
10460;BME280;54412;51.206;6.888;2023-02-02T15:52:05;101745.63;;;9.59;80.29
10460;BME280;54412;51.206;6.888;2023-02-02T15:54:35;101745.94;;;9.48;81.23
10460;BME280;54412;51.206;6.888;2023-02-02T15:57:26;101755.72;;;9.43;81.91
10460;BME280;54412;51.206;6.888;2023-02-02T15:59:52;101748.88;;;9.38;82.96